createdAt,value
2022-08-05T00:00:16.256Z,12.35
2022-08-05T00:02:51.532Z,11.63
2022-08-05T00:06:02.495Z,13.43
2022-08-05T00:08:34.409Z,13.50
2022-08-05T00:11:00.942Z,14.20
2022-08-05T00:13:38.816Z,8.77
2022-08-05T00:16:13.517Z,12.98
2022-08-05T00:18:48.214Z,11.85
2022-08-05T00:21:16.770Z,17.08
2022-08-05T00:24:06.142Z,14.75
2022-08-05T00:26:32.651Z,14.98
2022-08-05T00:28:59.630Z,11.80
2022-08-05T00:31:53.635Z,19.10
2022-08-05T00:34:53.756Z,16.70
2022-08-05T00:37:10.544Z,11.18
2022-08-05T00:39:41.538Z,13.77
2022-08-05T00:42:11.880Z,15.25
2022-08-05T00:44:58.896Z,17.02
2022-08-05T00:47:49.201Z,16.90
2022-08-05T00:50:13.992Z,15.57
2022-08-05T00:52:42.175Z,16.83
2022-08-05T00:55:12.667Z,17.35
2022-08-05T00:57:58.607Z,14.93
2022-08-05T01:00:30.756Z,18.92
2022-08-05T01:02:59.880Z,15.15
2022-08-05T01:05:27.802Z,14.52
2022-08-05T01:08:30.322Z,15.15
2022-08-05T01:10:52.236Z,16.65
2022-08-05T01:13:58.471Z,15.38
2022-08-05T01:16:40.954Z,16.65
2022-08-05T01:19:20.070Z,18.77
2022-08-05T01:22:06.941Z,17.83
2022-08-05T01:24:40.618Z,17.15
2022-08-05T01:27:55.349Z,18.35
2022-08-05T01:30:34.332Z,22.08
2022-08-05T01:33:08.413Z,21.92
2022-08-05T01:35:52.213Z,15.02
2022-08-05T01:38:24.846Z,14.10
2022-08-05T01:40:58.481Z,13.45
2022-08-05T01:43:26.374Z,15.52
2022-08-05T01:45:56.438Z,16.38
2022-08-05T01:48:26.457Z,22.33
2022-08-05T01:50:56.644Z,21.30
2022-08-05T01:53:54.928Z,17.90
2022-08-05T01:58:18.978Z,20.30
2022-08-05T01:59:06.686Z,15.15
2022-08-05T02:01:40.117Z,18.92
2022-08-05T02:04:10.503Z,15.50
2022-08-05T02:06:39.082Z,17.98
2022-08-05T02:09:07.693Z,18.33
2022-08-05T02:12:01.341Z,18.85
2022-08-05T02:14:37.646Z,14.75
2022-08-05T02:17:17.020Z,18.48
2022-08-05T02:20:03.091Z,22.08
2022-08-05T02:22:35.598Z,22.83
2022-08-05T02:25:12.814Z,22.83
2022-08-05T02:27:59.497Z,23.83
2022-08-05T02:30:37.096Z,19.38
2022-08-05T02:33:36.152Z,23.48
2022-08-05T02:36:13.607Z,22.83
2022-08-05T02:38:53.414Z,27.75
2022-08-05T02:41:23.883Z,24.13
2022-08-05T02:44:06.266Z,27.20
2022-08-05T02:46:58.444Z,25.02
2022-08-05T02:49:35.630Z,25.23
2022-08-05T02:52:08.607Z,27.98
2022-08-05T02:54:37.746Z,21.63
2022-08-05T02:59:59.422Z,26.17
2022-08-05T03:02:31.884Z,26.77
2022-08-05T03:04:59.642Z,23.73
2022-08-05T03:08:01.930Z,29.70
2022-08-05T03:10:24.426Z,26.48
2022-08-05T03:12:54.414Z,29.67
2022-08-05T03:15:23.470Z,33.40
2022-08-05T03:17:57.908Z,30.45
2022-08-05T03:20:26.234Z,31.27
2022-08-05T03:22:57.298Z,31.55
2022-08-05T03:25:33.308Z,32.65
2022-08-05T03:28:14.526Z,34.13
2022-08-05T03:30:47.130Z,33.97
2022-08-05T03:33:14.897Z,33.70
2022-08-05T03:35:42.063Z,33.60
2022-08-05T03:38:14.367Z,30.77
2022-08-05T03:40:45.413Z,33.42
2022-08-05T03:44:08.666Z,36.17
2022-08-05T03:46:05.011Z,36.72
2022-08-05T03:48:35.576Z,31.20
2022-08-05T03:52:37.323Z,29.50
2022-08-05T03:55:53.957Z,29.08
2022-08-05T03:57:42.307Z,29.95
2022-08-05T04:00:15.931Z,30.95
2022-08-05T04:02:58.006Z,25.98
2022-08-05T04:05:33.850Z,31.67
2022-08-05T04:08:29.551Z,37.10
2022-08-05T04:10:59.571Z,30.38
2022-08-05T04:13:27.855Z,35.33
2022-08-05T04:16:14.687Z,32.28
2022-08-05T04:18:41.773Z,28.80
2022-08-05T04:21:11.066Z,31.13
2022-08-05T04:23:58.383Z,28.83
2022-08-05T04:26:26.152Z,28.13
2022-08-05T04:29:00.125Z,32.40
2022-08-05T04:31:27.728Z,27.20
2022-08-05T04:34:18.414Z,32.95
2022-08-05T04:36:52.857Z,31.30
2022-08-05T04:39:20.463Z,27.63
2022-08-05T04:41:48.360Z,23.60
2022-08-05T04:44:29.007Z,25.90
2022-08-05T04:47:09.580Z,30.63
2022-08-05T04:50:02.886Z,32.20
2022-08-05T04:52:27.495Z,24.75
2022-08-05T04:54:57.066Z,28.13
2022-08-05T04:57:28.753Z,33.22
2022-08-05T04:59:58.749Z,33.20
2022-08-05T05:02:37.345Z,27.25
2022-08-05T05:05:26.577Z,32.63
2022-08-05T05:08:01.738Z,30.30
2022-08-05T05:10:42.163Z,29.58
2022-08-05T05:13:23.252Z,29.70
2022-08-05T05:15:56.763Z,33.47
2022-08-05T05:18:33.438Z,33.80
2022-08-05T05:21:03.888Z,32.23
2022-08-05T05:24:02.550Z,29.48
2022-08-05T05:26:18.518Z,27.80
2022-08-05T05:28:45.342Z,28.65
2022-08-05T05:31:12.762Z,26.48
2022-08-05T05:33:58.506Z,33.15
2022-08-05T05:36:28.791Z,27.17
2022-08-05T05:38:57.688Z,29.25
2022-08-05T05:41:24.830Z,29.13
2022-08-05T05:43:56.707Z,25.70
2022-08-05T05:46:25.628Z,23.83
2022-08-05T05:48:52.623Z,26.52
2022-08-05T05:51:25.732Z,28.52
2022-08-05T05:53:59.342Z,29.27
2022-08-05T05:56:34.155Z,20.15
2022-08-05T05:59:05.230Z,18.88
2022-08-05T06:01:42.637Z,26.05
2022-08-05T06:04:25.165Z,17.75
2022-08-05T06:06:52.261Z,19.33
2022-08-05T06:09:25.703Z,22.10
2022-08-05T06:12:09.705Z,43.25
2022-08-05T06:14:40.287Z,28.60
2022-08-05T06:17:22.190Z,16.83
2022-08-05T06:19:57.080Z,24.25
2022-08-05T06:22:33.746Z,26.27
2022-08-05T06:25:24.372Z,21.75
2022-08-05T06:28:12.750Z,18.52
2022-08-05T06:30:36.089Z,22.48
2022-08-05T06:33:02.822Z,20.70
2022-08-05T06:36:06.881Z,18.40
2022-08-05T06:38:16.895Z,16.70
2022-08-05T06:40:44.541Z,19.23
2022-08-05T06:43:57.957Z,16.58
2022-08-05T06:46:06.744Z,13.25
2022-08-05T06:48:50.227Z,15.63
2022-08-05T06:51:30.236Z,14.43
2022-08-05T06:54:03.891Z,17.05
2022-08-05T06:56:34.629Z,13.68
2022-08-05T06:59:09.766Z,17.67
2022-08-05T07:01:41.490Z,11.65
2022-08-05T07:04:10.128Z,15.07
2022-08-05T07:06:36.878Z,18.65
2022-08-05T07:09:04.871Z,13.55
2022-08-05T07:11:36.930Z,16.95
2022-08-05T07:14:29.600Z,15.82
2022-08-05T07:17:59.792Z,17.48
2022-08-05T07:20:34.149Z,13.45
2022-08-05T07:22:37.773Z,14.30
2022-08-05T07:25:23.338Z,12.43
2022-08-05T07:27:57.276Z,19.05
2022-08-05T07:30:38.466Z,15.85
2022-08-05T07:33:09.346Z,11.65
2022-08-05T07:36:05.228Z,12.02
2022-08-05T07:38:34.078Z,15.88
2022-08-05T07:41:35.026Z,9.40
2022-08-05T07:43:52.772Z,15.63
2022-08-05T07:46:25.165Z,17.42
2022-08-05T07:49:02.628Z,11.68
2022-08-05T07:51:36.434Z,18.58
2022-08-05T07:54:06.399Z,12.32
2022-08-05T07:57:00.232Z,17.83
2022-08-05T07:59:31.097Z,11.75
2022-08-05T08:02:15.574Z,12.55
2022-08-05T08:04:45.112Z,12.65
2022-08-05T08:07:12.856Z,18.95
2022-08-05T08:09:40.251Z,15.20
2022-08-05T08:12:14.677Z,14.35
2022-08-05T08:14:47.474Z,12.77
2022-08-05T08:17:15.929Z,14.20
2022-08-05T08:20:43.729Z,12.48
2022-08-05T08:22:32.329Z,15.82
2022-08-05T08:25:03.190Z,11.20
2022-08-05T08:27:39.854Z,9.45
2022-08-05T08:30:28.493Z,13.27
2022-08-05T08:33:04.666Z,12.63
2022-08-05T08:35:41.287Z,11.25
2022-08-05T08:40:40.027Z,11.73
2022-08-05T08:45:17.147Z,12.30
2022-08-05T08:45:57.371Z,17.85
2022-08-05T08:48:41.560Z,9.77
2022-08-05T08:51:54.561Z,14.02
2022-08-05T08:54:02.123Z,13.07
2022-08-05T08:56:29.839Z,11.65
2022-08-05T08:58:59.229Z,11.00
2022-08-05T09:01:27.829Z,9.65
2022-08-05T09:03:58.308Z,9.23
2022-08-05T09:06:29.964Z,11.38
2022-08-05T09:09:02.047Z,11.68
2022-08-05T09:11:53.092Z,10.38
2022-08-05T09:14:58.979Z,13.68
2022-08-05T09:17:09.549Z,10.57
2022-08-05T09:20:01.777Z,11.50
2022-08-05T09:22:51.882Z,8.18
2022-08-05T09:25:24.359Z,11.60
2022-08-05T09:28:15.122Z,13.65
2022-08-05T09:30:56.736Z,7.72
2022-08-05T09:33:25.315Z,13.57
2022-08-05T09:36:11.694Z,7.80
2022-08-05T09:39:18.296Z,11.55
2022-08-05T09:41:57.157Z,7.50
2022-08-05T09:44:39.693Z,9.55
2022-08-05T09:47:55.339Z,9.95
2022-08-05T09:50:38.783Z,12.35
2022-08-05T09:53:22.888Z,9.00
2022-08-05T09:56:11.387Z,8.05
2022-08-05T09:58:41.836Z,7.22
2022-08-05T10:01:14.958Z,13.48
2022-08-05T10:04:03.133Z,11.48
2022-08-05T10:06:32.177Z,7.80
2022-08-05T10:09:28.239Z,10.32
2022-08-05T10:12:31.350Z,10.38
2022-08-05T10:15:21.053Z,10.57
2022-08-05T10:18:19.663Z,9.48
2022-08-05T10:21:11.810Z,9.65
2022-08-05T10:23:59.096Z,10.68
2022-08-05T10:26:32.368Z,8.00
2022-08-05T10:28:59.757Z,8.85
2022-08-05T10:32:54.908Z,10.98
2022-08-05T10:34:13.871Z,5.97
2022-08-05T10:36:41.895Z,7.40
2022-08-05T10:39:24.320Z,8.10
2022-08-05T10:42:11.342Z,7.63
2022-08-05T10:44:39.220Z,10.98
2022-08-05T10:47:26.204Z,11.40
2022-08-05T10:50:33.217Z,11.05
2022-08-05T10:53:00.099Z,11.90
2022-08-05T10:55:27.574Z,12.32
2022-08-05T10:58:09.246Z,13.18
2022-08-05T11:00:42.163Z,11.82
2022-08-05T11:06:15.429Z,6.53
2022-08-05T11:09:16.425Z,9.82
2022-08-05T11:11:52.454Z,12.35
2022-08-05T11:17:58.122Z,14.55
2022-08-05T11:20:36.755Z,14.00
2022-08-05T11:23:33.378Z,13.38
2022-08-05T11:26:28.815Z,13.20
2022-08-05T11:29:06.708Z,9.23
2022-08-05T11:31:56.969Z,9.77
2022-08-05T11:34:51.168Z,10.80
2022-08-05T11:38:31.029Z,10.75
2022-08-05T11:41:13.834Z,10.18
2022-08-05T11:44:05.460Z,9.02
2022-08-05T11:46:58.698Z,9.50
2022-08-05T11:49:28.020Z,16.13
2022-08-05T11:51:55.151Z,12.27
2022-08-05T11:54:37.924Z,10.98
2022-08-05T11:57:08.352Z,11.00
2022-08-05T11:59:51.750Z,9.40
2022-08-05T12:02:31.531Z,10.60
2022-08-05T12:05:07.617Z,8.57
2022-08-05T12:08:08.779Z,9.75
2022-08-05T12:10:38.529Z,6.03
2022-08-05T12:13:16.779Z,6.93
2022-08-05T12:15:49.990Z,12.07
2022-08-05T12:18:20.598Z,14.75
2022-08-05T12:20:50.949Z,11.73
2022-08-05T12:23:18.368Z,9.95
2022-08-05T12:25:52.521Z,10.40
2022-08-05T12:28:37.684Z,9.77
2022-08-05T12:31:05.351Z,10.18
2022-08-05T12:33:36.294Z,8.35
2022-08-05T12:36:08.196Z,11.05
2022-08-05T12:38:41.380Z,8.85
2022-08-05T12:41:16.450Z,9.68
2022-08-05T12:43:57.490Z,8.55
2022-08-05T12:46:29.917Z,9.43
2022-08-05T12:49:13.471Z,9.27
2022-08-05T12:52:10.672Z,4.78
2022-08-05T12:54:35.971Z,9.68
2022-08-05T12:57:09.328Z,7.50
2022-08-05T13:01:56.775Z,8.98
2022-08-05T13:02:37.153Z,11.40
2022-08-05T13:05:07.255Z,10.35
2022-08-05T13:10:22.011Z,5.85
2022-08-05T13:12:57.155Z,5.20
2022-08-05T13:15:36.133Z,5.97
2022-08-05T13:18:19.696Z,13.20
2022-08-05T13:20:49.933Z,9.93
2022-08-05T13:23:18.309Z,8.98
2022-08-05T13:25:59.218Z,8.02
2022-08-05T13:28:29.019Z,4.15
2022-08-05T13:30:57.114Z,6.35
2022-08-05T13:34:23.299Z,8.45
2022-08-05T13:36:14.517Z,5.05
2022-08-05T13:38:42.684Z,6.35
2022-08-05T13:41:13.304Z,4.18
2022-08-05T13:46:37.963Z,3.28
2022-08-05T13:49:13.524Z,6.57
2022-08-05T13:51:46.130Z,6.38
2022-08-05T13:54:15.852Z,4.28
2022-08-05T13:56:51.458Z,7.00
2022-08-05T13:59:30.821Z,14.38
2022-08-05T14:02:00.523Z,5.22
2022-08-05T14:04:52.081Z,5.30
2022-08-05T14:08:05.549Z,5.13
2022-08-05T14:10:19.141Z,5.88
2022-08-05T14:12:55.808Z,7.70
2022-08-05T14:16:06.890Z,4.90
2022-08-05T14:18:14.998Z,6.55
2022-08-05T14:20:48.656Z,2.85
2022-08-05T14:23:24.902Z,3.80
2022-08-05T14:25:57.921Z,7.10
2022-08-05T14:28:26.486Z,1.70
2022-08-05T14:30:55.519Z,10.82
2022-08-05T14:33:23.866Z,5.30
2022-08-05T14:35:54.549Z,4.47
2022-08-05T14:38:32.760Z,5.88
2022-08-05T14:41:06.938Z,1.95
2022-08-05T14:43:58.767Z,5.07
2022-08-05T14:46:28.795Z,6.63
2022-08-05T14:48:58.544Z,3.15
2022-08-05T14:51:30.877Z,3.55
2022-08-05T14:54:26.370Z,2.97
2022-08-05T14:56:46.731Z,7.78
2022-08-05T14:59:16.221Z,2.67
2022-08-05T15:01:47.914Z,1.92
2022-08-05T15:04:22.281Z,4.57
2022-08-05T15:06:52.884Z,1.38
2022-08-05T15:09:51.305Z,4.20
2022-08-05T15:12:11.489Z,2.05
2022-08-05T15:14:49.476Z,5.10
2022-08-05T15:17:47.025Z,5.10
2022-08-05T15:20:18.592Z,3.60
2022-08-05T15:22:52.204Z,1.92
2022-08-05T15:25:23.308Z,4.95
2022-08-05T15:28:08.494Z,10.38
2022-08-05T15:33:07.345Z,4.13
2022-08-05T15:35:36.268Z,15.05
2022-08-05T15:38:33.681Z,3.75
2022-08-05T15:41:22.985Z,3.60
2022-08-05T15:43:47.054Z,1.67
2022-08-05T15:46:14.471Z,2.58
2022-08-05T15:48:52.855Z,2.50
2022-08-05T15:52:13.812Z,2.17
2022-08-05T15:54:15.965Z,4.75
2022-08-05T15:56:43.731Z,1.92
2022-08-05T15:59:10.589Z,5.43
2022-08-05T16:01:53.182Z,1.85
2022-08-05T16:04:25.537Z,6.50
2022-08-05T16:06:55.559Z,2.70
2022-08-05T16:09:24.599Z,4.25
2022-08-05T16:11:53.729Z,5.50
2022-08-05T16:14:21.796Z,3.08
2022-08-05T16:16:50.118Z,10.23
2022-08-05T16:19:25.895Z,1.80
2022-08-05T16:22:05.308Z,6.13
2022-08-05T16:24:40.351Z,1.58
2022-08-05T16:27:09.727Z,1.65
2022-08-05T16:29:50.284Z,1.70
2022-08-05T16:32:28.791Z,3.70
2022-08-05T16:34:58.803Z,9.00
2022-08-05T16:38:03.496Z,1.83
2022-08-05T16:40:28.627Z,3.85
2022-08-05T16:42:56.447Z,1.98
2022-08-05T16:46:06.745Z,2.75
2022-08-05T16:48:10.521Z,7.55
2022-08-05T16:50:37.304Z,5.22
2022-08-05T16:53:12.596Z,10.57
2022-08-05T16:55:49.750Z,5.72
2022-08-05T16:58:19.878Z,4.07
2022-08-05T17:00:49.529Z,7.68
2022-08-05T17:03:19.999Z,2.67
2022-08-05T17:05:53.953Z,1.88
2022-08-05T17:08:36.348Z,5.30
2022-08-05T17:11:12.858Z,2.58
2022-08-05T17:13:44.458Z,2.92
2022-08-05T17:16:30.232Z,5.72
2022-08-05T17:18:59.236Z,3.03
2022-08-05T17:21:25.942Z,3.17
2022-08-05T17:24:14.338Z,4.07
2022-08-05T17:26:50.727Z,4.10
2022-08-05T17:29:22.752Z,3.63
2022-08-05T17:32:01.103Z,2.22
2022-08-05T17:34:30.017Z,2.92
2022-08-05T17:36:59.942Z,3.63
2022-08-05T17:39:34.252Z,3.05
2022-08-05T17:42:18.236Z,5.03
2022-08-05T17:44:50.485Z,9.88
2022-08-05T17:47:22.940Z,3.67
2022-08-05T17:50:03.993Z,2.35
2022-08-05T17:52:53.316Z,2.80
2022-08-05T17:55:27.189Z,6.10
2022-08-05T17:58:02.152Z,2.85
2022-08-05T18:00:29.751Z,4.50
2022-08-05T18:02:56.983Z,8.60
2022-08-05T18:05:24.176Z,6.35
2022-08-05T18:07:56.876Z,11.52
2022-08-05T18:10:24.132Z,6.15
2022-08-05T18:12:51.511Z,6.43
2022-08-05T18:15:18.258Z,10.38
2022-08-05T18:17:59.600Z,14.68
2022-08-05T18:20:31.629Z,7.40
2022-08-05T18:23:00.626Z,5.30
2022-08-05T18:25:44.909Z,66.88
2022-08-05T18:28:17.461Z,13.00
2022-08-05T18:30:50.752Z,6.65
2022-08-05T18:33:23.029Z,9.15
2022-08-05T18:36:04.026Z,5.50
2022-08-05T18:38:36.810Z,7.63
2022-08-05T18:42:00.736Z,2.60
2022-08-05T18:43:52.787Z,5.45
2022-08-05T18:46:20.579Z,4.55
2022-08-05T18:48:52.093Z,12.45
2022-08-05T18:52:04.542Z,5.87
2022-08-05T18:54:31.277Z,13.57
2022-08-05T18:57:01.489Z,9.95
2022-08-05T18:59:44.142Z,5.35
2022-08-05T19:02:26.415Z,11.50
2022-08-05T19:05:25.077Z,5.80
2022-08-05T19:07:55.080Z,12.38
2022-08-05T19:10:28.243Z,3.80
2022-08-05T19:12:56.438Z,8.90
2022-08-05T19:15:56.853Z,13.85
2022-08-05T19:18:20.600Z,29.90
2022-08-05T19:20:49.101Z,17.95
2022-08-05T19:24:03.843Z,23.60
2022-08-05T19:26:03.743Z,19.27
2022-08-05T19:28:31.167Z,11.00
2022-08-05T19:31:01.203Z,6.13
2022-08-05T19:33:35.833Z,15.57
2022-08-05T19:36:07.147Z,17.15
2022-08-05T19:38:36.049Z,11.88
2022-08-05T19:41:07.076Z,17.02
2022-08-05T19:44:04.608Z,25.67
2022-08-05T19:46:30.488Z,31.50
2022-08-05T19:49:01.175Z,11.65
2022-08-05T19:52:04.895Z,17.60
2022-08-05T19:54:26.685Z,17.42
2022-08-05T19:56:58.752Z,12.80
2022-08-05T19:59:56.372Z,13.82
2022-08-05T20:02:14.674Z,12.75
2022-08-05T20:04:43.287Z,9.73
2022-08-05T20:07:14.258Z,11.95
2022-08-05T20:09:53.579Z,14.82
2022-08-05T20:12:23.868Z,9.55
2022-08-05T20:14:52.128Z,6.55
2022-08-05T20:17:23.665Z,9.82
2022-08-05T20:19:56.823Z,14.55
2022-08-05T20:22:26.993Z,9.38
2022-08-05T20:24:55.768Z,11.13
2022-08-05T20:27:26.844Z,10.13
2022-08-05T20:29:58.510Z,18.95
2022-08-05T20:32:27.047Z,8.93
2022-08-05T20:34:54.936Z,4.75
2022-08-05T20:38:05.031Z,9.45
2022-08-05T20:40:09.402Z,17.13
2022-08-05T20:42:36.531Z,9.10
2022-08-05T20:45:05.334Z,10.20
2022-08-05T20:47:32.695Z,8.90
2022-08-05T20:50:02.168Z,9.70
2022-08-05T20:52:29.697Z,11.93
2022-08-05T20:54:59.866Z,12.07
2022-08-05T20:57:45.095Z,7.13
2022-08-05T21:00:41.248Z,9.57
2022-08-05T21:03:07.812Z,2.85
2022-08-05T21:05:47.421Z,5.73
2022-08-05T21:08:20.293Z,9.98
2022-08-05T21:10:49.199Z,14.32
2022-08-05T21:13:26.120Z,18.42
2022-08-05T21:16:03.923Z,14.68
2022-08-05T21:18:31.641Z,8.27
2022-08-05T21:20:58.467Z,14.40
2022-08-05T21:23:25.505Z,21.55
2022-08-05T21:25:55.491Z,31.98
2022-08-05T21:28:23.959Z,80.35
2022-08-05T21:30:57.629Z,28.48
2022-08-05T21:33:24.271Z,83.00
2022-08-05T21:36:04.160Z,69.45
2022-08-05T21:38:30.998Z,35.47
2022-08-05T21:40:57.920Z,61.03
2022-08-05T21:43:25.180Z,32.05
2022-08-05T21:45:57.614Z,19.33
2022-08-05T21:48:27.930Z,8.02
2022-08-05T21:50:55.961Z,11.27
2022-08-05T21:53:27.707Z,6.28
2022-08-05T21:56:06.381Z,3.65
2022-08-05T21:58:57.090Z,7.47
2022-08-05T22:01:25.957Z,8.82
2022-08-05T22:03:53.747Z,11.10
2022-08-05T22:06:22.737Z,4.13
2022-08-05T22:09:00.553Z,4.05
2022-08-05T22:11:35.236Z,12.88
2022-08-05T22:14:33.609Z,5.63
2022-08-05T22:16:56.940Z,11.52
2022-08-05T22:20:00.678Z,5.00
2022-08-05T22:22:14.438Z,7.20
2022-08-05T22:25:00.285Z,12.55
2022-08-05T22:28:04.907Z,6.95
2022-08-05T22:30:35.861Z,4.28
2022-08-05T22:33:15.527Z,5.20
2022-08-05T22:35:48.676Z,4.70
2022-08-05T22:40:49.611Z,6.03
2022-08-05T22:46:12.053Z,6.30
2022-08-05T22:48:41.833Z,4.78
2022-08-05T22:51:22.387Z,5.78
2022-08-05T22:53:50.939Z,7.75
2022-08-05T22:56:30.272Z,7.35
2022-08-05T22:59:00.133Z,5.38
2022-08-05T23:01:50.742Z,10.48
2022-08-05T23:04:17.680Z,10.68
2022-08-05T23:06:44.961Z,8.80
2022-08-05T23:09:27.566Z,6.43
2022-08-05T23:12:01.916Z,8.40
2022-08-05T23:14:32.401Z,8.38
2022-08-05T23:17:24.542Z,7.07
2022-08-05T23:20:02.352Z,3.08
2022-08-05T23:22:30.756Z,9.88
2022-08-05T23:24:57.920Z,7.03
2022-08-05T23:27:28.957Z,10.93
2022-08-05T23:30:10.751Z,7.95
2022-08-05T23:32:40.685Z,7.90
2022-08-05T23:35:12.444Z,14.07
2022-08-05T23:37:39.809Z,7.53
2022-08-05T23:40:07.699Z,11.45
2022-08-05T23:42:37.195Z,8.23
2022-08-05T23:45:14.390Z,5.05
2022-08-05T23:47:48.397Z,6.30
2022-08-05T23:50:20.240Z,7.78
2022-08-05T23:52:50.162Z,7.13
2022-08-05T23:55:18.409Z,9.02
2022-08-05T23:57:51.051Z,9.68
